createdAt,value
2018-05-04T00:00:34.585Z,10.81
2018-05-04T00:01:35.018Z,10.87
2018-05-04T00:02:35.442Z,10.84
2018-05-04T00:03:35.868Z,10.86
2018-05-04T00:04:36.303Z,10.78
2018-05-04T00:05:36.725Z,10.82
2018-05-04T00:06:37.193Z,10.81
2018-05-04T00:07:37.585Z,10.75
2018-05-04T00:08:38.011Z,10.81
2018-05-04T00:09:38.455Z,10.78
2018-05-04T00:10:38.866Z,10.69
2018-05-04T00:11:39.293Z,10.69
2018-05-04T00:12:39.721Z,10.82
2018-05-04T00:13:40.152Z,10.69
2018-05-04T00:14:40.586Z,10.82
2018-05-04T00:15:41.006Z,10.72
2018-05-04T00:16:41.435Z,10.76
2018-05-04T00:17:41.862Z,10.64
2018-05-04T00:18:42.290Z,10.64
2018-05-04T00:19:42.720Z,10.60
2018-05-04T00:20:43.149Z,10.67
2018-05-04T00:21:43.574Z,10.67
2018-05-04T00:22:44.000Z,10.67
2018-05-04T00:23:44.425Z,10.68
2018-05-04T00:24:44.941Z,10.67
2018-05-04T00:25:45.283Z,10.61
2018-05-04T00:26:45.730Z,10.60
2018-05-04T00:27:46.137Z,10.68
2018-05-04T00:28:46.571Z,10.56
2018-05-04T00:29:46.994Z,10.69
2018-05-04T00:30:47.443Z,10.68
2018-05-04T00:31:47.856Z,10.68
2018-05-04T00:32:48.280Z,10.81
2018-05-04T00:33:48.704Z,10.74
2018-05-04T00:34:49.140Z,10.74
2018-05-04T00:35:49.561Z,10.71
2018-05-04T00:36:49.987Z,10.76
2018-05-04T00:37:50.421Z,10.68
2018-05-04T00:38:50.845Z,10.69
2018-05-04T00:39:51.269Z,10.68
2018-05-04T00:40:51.699Z,10.67
2018-05-04T00:41:52.133Z,10.67
2018-05-04T00:42:52.555Z,10.67
2018-05-04T00:43:52.991Z,10.68
2018-05-04T00:44:53.409Z,10.63
2018-05-04T00:45:53.841Z,10.67
2018-05-04T00:46:54.332Z,10.71
2018-05-04T00:47:54.710Z,10.68
2018-05-04T00:48:55.128Z,10.69
2018-05-04T00:49:55.551Z,10.69
2018-05-04T00:50:55.983Z,10.75
2018-05-04T00:51:56.407Z,10.78
2018-05-04T00:52:56.834Z,10.72
2018-05-04T00:53:57.262Z,10.67
2018-05-04T00:54:57.690Z,10.64
2018-05-04T00:55:58.117Z,10.61
2018-05-04T00:56:58.563Z,10.56
2018-05-04T00:57:58.982Z,10.54
2018-05-04T00:58:59.402Z,10.60
2018-05-04T00:59:59.842Z,10.68
2018-05-04T01:01:00.263Z,10.67
2018-05-04T01:02:00.684Z,10.56
2018-05-04T01:03:01.188Z,10.46
2018-05-04T01:04:01.544Z,10.46
2018-05-04T01:05:01.969Z,10.51
2018-05-04T01:06:02.397Z,10.35
2018-05-04T01:07:02.824Z,10.40
2018-05-04T01:08:03.249Z,10.44
2018-05-04T01:09:03.680Z,10.35
2018-05-04T01:10:04.108Z,10.34
2018-05-04T01:11:04.535Z,10.37
2018-05-04T01:12:04.964Z,10.41
2018-05-04T01:13:05.390Z,10.37
2018-05-04T01:14:05.869Z,10.31
2018-05-04T01:15:06.258Z,10.19
2018-05-04T01:16:06.673Z,10.28
2018-05-04T01:17:07.100Z,10.20
2018-05-04T01:18:07.637Z,10.20
2018-05-04T01:19:07.951Z,10.22
2018-05-04T01:20:08.384Z,10.26
2018-05-04T01:21:08.818Z,10.12
2018-05-04T01:22:09.237Z,10.13
2018-05-04T01:23:09.668Z,10.23
2018-05-04T01:24:10.208Z,10.15
2018-05-04T01:25:10.531Z,10.15
2018-05-04T01:26:10.946Z,10.15
2018-05-04T01:27:11.378Z,10.13
2018-05-04T01:28:11.810Z,10.16
2018-05-04T01:29:12.234Z,10.09
2018-05-04T01:30:12.680Z,10.13
2018-05-04T01:31:13.087Z,10.13
2018-05-04T01:32:13.516Z,10.04
2018-05-04T01:33:13.945Z,10.09
2018-05-04T01:34:14.381Z,10.04
2018-05-04T01:35:14.872Z,9.98
2018-05-04T01:36:15.222Z,10.07
2018-05-04T01:37:15.660Z,10.10
2018-05-04T01:38:16.114Z,9.99
2018-05-04T01:39:16.524Z,9.98
2018-05-04T01:40:16.936Z,9.98
2018-05-04T01:41:17.361Z,9.89
2018-05-04T01:42:17.794Z,10.01
2018-05-04T01:43:18.216Z,9.94
2018-05-04T01:44:18.651Z,9.80
2018-05-04T01:45:19.102Z,9.91
2018-05-04T01:46:19.504Z,9.89
2018-05-04T01:47:19.934Z,9.86
2018-05-04T01:48:20.348Z,9.91
2018-05-04T01:49:20.794Z,9.91
2018-05-04T01:50:21.205Z,9.94
2018-05-04T01:51:21.632Z,9.87
2018-05-04T01:52:22.060Z,9.89
2018-05-04T01:53:22.485Z,9.87
2018-05-04T01:54:22.911Z,9.91
2018-05-04T01:55:23.343Z,9.89
2018-05-04T01:56:23.770Z,9.94
2018-05-04T01:57:24.196Z,9.80
2018-05-04T01:58:24.626Z,9.94
2018-05-04T01:59:25.050Z,9.87
2018-05-04T02:00:25.476Z,9.92
2018-05-04T02:01:25.904Z,9.87
2018-05-04T02:02:26.333Z,9.87
2018-05-04T02:03:26.756Z,9.82
2018-05-04T02:04:27.190Z,9.80
2018-05-04T02:05:27.612Z,9.87
2018-05-04T02:06:28.043Z,9.82
2018-05-04T02:07:28.468Z,9.84
2018-05-04T02:08:28.894Z,9.84
2018-05-04T02:09:29.322Z,9.73
2018-05-04T02:10:29.815Z,9.73
2018-05-04T02:11:30.181Z,9.82
2018-05-04T02:12:30.598Z,9.68
2018-05-04T02:13:31.030Z,9.65
2018-05-04T02:14:31.453Z,9.73
2018-05-04T02:15:31.884Z,9.65
2018-05-04T02:16:32.306Z,9.72
2018-05-04T02:17:32.821Z,9.59
2018-05-04T02:18:33.170Z,9.55
2018-05-04T02:19:33.589Z,9.59
2018-05-04T02:20:34.038Z,9.72
2018-05-04T02:21:34.448Z,9.69
2018-05-04T02:22:34.869Z,9.59
2018-05-04T02:23:35.300Z,9.65
2018-05-04T02:24:35.726Z,9.62
2018-05-04T02:25:36.152Z,9.61
2018-05-04T02:26:36.577Z,9.62
2018-05-04T02:27:37.021Z,9.69
2018-05-04T02:28:37.431Z,9.62
2018-05-04T02:29:37.859Z,9.72
2018-05-04T02:30:38.298Z,9.59
2018-05-04T02:31:38.712Z,9.58
2018-05-04T02:32:39.140Z,9.62
2018-05-04T02:33:39.575Z,9.59
2018-05-04T02:34:39.994Z,9.61
2018-05-04T02:35:40.419Z,9.58
2018-05-04T02:36:40.847Z,9.55
2018-05-04T02:37:41.277Z,9.55
2018-05-04T02:38:41.696Z,9.55
2018-05-04T02:39:42.134Z,9.51
2018-05-04T02:40:42.559Z,9.55
2018-05-04T02:41:42.982Z,9.55
2018-05-04T02:42:43.407Z,9.51
2018-05-04T02:43:43.836Z,9.50
2018-05-04T02:44:44.266Z,9.44
2018-05-04T02:45:44.693Z,9.41
2018-05-04T02:46:45.116Z,9.44
2018-05-04T02:47:45.547Z,9.29
2018-05-04T02:48:45.970Z,9.41
2018-05-04T02:49:46.398Z,9.34
2018-05-04T02:50:46.836Z,9.29
2018-05-04T02:51:47.257Z,9.39
2018-05-04T02:52:47.675Z,9.25
2018-05-04T02:53:48.105Z,9.25
2018-05-04T02:54:48.537Z,9.25
2018-05-04T02:55:48.957Z,9.14
2018-05-04T02:56:49.380Z,9.19
2018-05-04T02:57:49.816Z,9.23
2018-05-04T02:58:50.238Z,9.19
2018-05-04T02:59:50.662Z,9.23
2018-05-04T03:00:51.089Z,9.23
2018-05-04T03:01:51.520Z,9.19
2018-05-04T03:02:51.942Z,9.16
2018-05-04T03:03:52.387Z,9.19
2018-05-04T03:04:52.801Z,9.21
2018-05-04T03:05:53.225Z,9.14
2018-05-04T03:06:53.645Z,9.18
2018-05-04T03:07:54.079Z,9.22
2018-05-04T03:08:54.501Z,9.18
2018-05-04T03:09:54.930Z,9.18
2018-05-04T03:10:55.356Z,9.21
2018-05-04T03:11:55.791Z,9.22
2018-05-04T03:12:56.205Z,9.16
2018-05-04T03:13:56.659Z,9.11
2018-05-04T03:14:57.062Z,9.18
2018-05-04T03:15:57.493Z,9.11
2018-05-04T03:16:57.920Z,9.14
2018-05-04T03:17:58.341Z,9.18
2018-05-04T03:18:58.764Z,9.06
2018-05-04T03:19:59.189Z,9.18
2018-05-04T03:20:59.615Z,9.08
2018-05-04T03:22:00.058Z,9.11
2018-05-04T03:23:00.468Z,9.03
2018-05-04T03:24:00.899Z,9.13
2018-05-04T03:25:01.332Z,9.18
2018-05-04T03:26:01.747Z,9.11
2018-05-04T03:27:02.182Z,9.18
2018-05-04T03:28:02.600Z,9.14
2018-05-04T03:29:03.026Z,9.18
2018-05-04T03:30:03.453Z,9.16
2018-05-04T03:31:03.887Z,9.14
2018-05-04T03:32:04.307Z,9.13
2018-05-04T03:33:04.734Z,9.14
2018-05-04T03:34:05.159Z,9.11
2018-05-04T03:35:05.588Z,9.13
2018-05-04T03:36:06.013Z,9.06
2018-05-04T03:37:06.433Z,9.08
2018-05-04T03:38:06.885Z,9.03
2018-05-04T03:39:07.296Z,9.06
2018-05-04T03:40:07.716Z,9.06
2018-05-04T03:41:08.145Z,9.03
2018-05-04T03:42:08.589Z,9.16
2018-05-04T03:43:08.994Z,9.08
2018-05-04T03:44:09.423Z,9.13
2018-05-04T03:45:09.861Z,9.06
2018-05-04T03:46:10.275Z,9.08
2018-05-04T03:47:10.704Z,9.13
2018-05-04T03:48:11.133Z,9.08
2018-05-04T03:49:11.573Z,8.99
2018-05-04T03:50:11.982Z,9.04
2018-05-04T03:51:12.420Z,8.89
2018-05-04T03:52:12.841Z,8.94
2018-05-04T03:53:13.252Z,8.87
2018-05-04T03:54:13.690Z,9.02
2018-05-04T03:55:14.107Z,8.99
2018-05-04T03:56:14.537Z,8.97
2018-05-04T03:57:14.959Z,8.91
2018-05-04T03:58:15.403Z,8.91
2018-05-04T03:59:15.815Z,8.87
2018-05-04T04:00:16.278Z,8.85
2018-05-04T04:01:16.664Z,8.85
2018-05-04T04:02:17.092Z,8.87
2018-05-04T04:03:17.514Z,8.99
2018-05-04T04:04:17.946Z,8.89
2018-05-04T04:05:18.373Z,8.97
2018-05-04T04:06:18.799Z,8.89
2018-05-04T04:07:19.222Z,8.91
2018-05-04T04:08:19.649Z,8.94
2018-05-04T04:09:20.089Z,8.97
2018-05-04T04:10:20.499Z,8.91
2018-05-04T04:11:20.928Z,8.88
2018-05-04T04:12:21.355Z,8.95
2018-05-04T04:13:21.779Z,8.92
2018-05-04T04:14:22.211Z,8.94
2018-05-04T04:15:22.759Z,8.81
2018-05-04T04:16:23.048Z,8.94
2018-05-04T04:17:23.481Z,8.82
2018-05-04T04:18:23.915Z,8.82
2018-05-04T04:19:24.333Z,8.82
2018-05-04T04:20:24.759Z,8.89
2018-05-04T04:21:25.187Z,8.84
2018-05-04T04:22:25.629Z,9.04
2018-05-04T04:23:26.100Z,9.02
2018-05-04T04:24:26.463Z,8.88
2018-05-04T04:25:26.890Z,8.95
2018-05-04T04:26:27.317Z,8.85
2018-05-04T04:27:27.740Z,8.99
2018-05-04T04:28:28.183Z,8.97
2018-05-04T04:29:28.595Z,9.02
2018-05-04T04:30:29.015Z,9.03
2018-05-04T04:31:29.497Z,9.04
2018-05-04T04:32:29.878Z,9.10
2018-05-04T04:33:30.330Z,9.03
2018-05-04T04:34:30.725Z,9.08
2018-05-04T04:35:31.145Z,9.18
2018-05-04T04:36:31.576Z,9.13
2018-05-04T04:37:32.004Z,9.18
2018-05-04T04:38:32.429Z,9.19
2018-05-04T04:39:32.849Z,9.22
2018-05-04T04:40:33.281Z,9.22
2018-05-04T04:41:33.702Z,9.29
2018-05-04T04:42:34.129Z,9.32
2018-05-04T04:43:34.558Z,9.29
2018-05-04T04:44:34.988Z,9.25
2018-05-04T04:45:35.427Z,9.31
2018-05-04T04:46:35.840Z,9.32
2018-05-04T04:47:36.266Z,9.26
2018-05-04T04:48:36.688Z,9.31
2018-05-04T04:49:37.114Z,9.31
2018-05-04T04:50:37.541Z,9.28
2018-05-04T04:51:38.031Z,9.31
2018-05-04T04:52:38.399Z,9.32
2018-05-04T04:53:38.822Z,9.29
2018-05-04T04:54:39.262Z,9.39
2018-05-04T04:55:39.872Z,9.31
2018-05-04T04:56:40.105Z,9.36
2018-05-04T04:57:40.524Z,9.41
2018-05-04T04:58:40.949Z,9.43
2018-05-04T04:59:41.382Z,9.40
2018-05-04T05:00:41.811Z,9.40
2018-05-04T05:01:42.240Z,9.50
2018-05-04T05:04:40.660Z,9.50
2018-05-04T05:05:41.092Z,9.56
2018-05-04T05:06:41.512Z,9.59
2018-05-04T05:07:41.939Z,9.59
2018-05-04T05:08:42.362Z,9.59
2018-05-04T05:09:42.787Z,9.61
2018-05-04T05:10:43.211Z,9.68
2018-05-04T05:11:43.640Z,9.77
2018-05-04T05:12:44.069Z,9.55
2018-05-04T05:13:44.493Z,9.62
2018-05-04T05:14:44.919Z,9.64
2018-05-04T05:15:45.351Z,9.76
2018-05-04T05:16:45.770Z,9.80
2018-05-04T05:17:46.203Z,9.92
2018-05-04T05:18:46.627Z,10.30
2018-05-04T05:19:47.076Z,10.46
2018-05-04T05:20:47.488Z,10.53
2018-05-04T05:21:47.917Z,10.57
2018-05-04T05:22:48.333Z,10.76
2018-05-04T05:23:48.857Z,10.56
2018-05-04T05:24:49.196Z,10.76
2018-05-04T05:25:49.637Z,10.53
2018-05-04T05:26:50.049Z,10.56
2018-05-04T05:27:50.467Z,10.42
2018-05-04T05:28:50.906Z,10.30
2018-05-04T05:29:51.321Z,10.35
2018-05-04T05:30:51.749Z,10.35
2018-05-04T05:31:52.184Z,10.22
2018-05-04T05:32:52.606Z,10.23
2018-05-04T05:33:53.037Z,10.22
2018-05-04T05:34:53.469Z,10.33
2018-05-04T05:35:53.886Z,10.10
2018-05-04T05:36:54.311Z,10.26
2018-05-04T05:37:54.742Z,10.28
2018-05-04T05:38:55.168Z,10.38
2018-05-04T05:39:55.599Z,10.51
2018-05-04T05:40:56.042Z,10.53
2018-05-04T05:41:56.455Z,10.40
2018-05-04T05:42:56.879Z,10.37
2018-05-04T05:43:57.305Z,10.46
2018-05-04T05:44:57.736Z,10.42
2018-05-04T05:45:58.168Z,10.48
2018-05-04T05:46:58.585Z,10.61
2018-05-04T05:47:59.018Z,10.74
2018-05-04T05:48:59.449Z,10.61
2018-05-04T05:49:59.871Z,10.61
2018-05-04T05:51:00.305Z,10.69
2018-05-04T05:52:00.798Z,10.79
2018-05-04T05:53:01.155Z,10.82
2018-05-04T05:54:01.584Z,10.84
2018-05-04T05:55:02.011Z,10.87
2018-05-04T05:56:02.438Z,10.94
2018-05-04T05:57:02.868Z,10.94
2018-05-04T05:58:03.295Z,11.02
2018-05-04T05:59:03.863Z,11.04
2018-05-04T06:00:04.146Z,11.08
2018-05-04T06:01:04.580Z,11.02
2018-05-04T06:02:05.005Z,11.15
2018-05-04T06:03:05.438Z,11.29
2018-05-04T06:04:05.921Z,11.37
2018-05-04T06:05:06.310Z,11.45
2018-05-04T06:06:06.722Z,11.55
2018-05-04T06:07:07.152Z,11.55
2018-05-04T06:08:07.576Z,11.77
2018-05-04T06:09:08.007Z,11.81
2018-05-04T06:10:08.433Z,11.83
2018-05-04T06:11:08.865Z,12.03
2018-05-04T06:12:09.296Z,12.04
2018-05-04T06:13:09.727Z,12.07
2018-05-04T06:14:10.150Z,12.06
2018-05-04T06:15:10.579Z,12.10
2018-05-04T06:16:11.009Z,11.90
2018-05-04T06:17:11.438Z,11.87
2018-05-04T06:18:11.870Z,12.02
2018-05-04T06:19:12.310Z,12.09
2018-05-04T06:20:12.724Z,12.00
2018-05-04T06:21:13.162Z,12.21
2018-05-04T06:22:13.582Z,12.15
2018-05-04T06:23:14.022Z,12.00
2018-05-04T06:24:14.455Z,11.90
2018-05-04T06:25:14.894Z,12.06
2018-05-04T06:26:15.312Z,12.02
2018-05-04T06:27:15.733Z,12.06
2018-05-04T06:28:16.170Z,12.24
2018-05-04T06:29:16.597Z,12.45
2018-05-04T06:30:17.019Z,12.61
2018-05-04T06:31:17.460Z,12.60
2018-05-04T06:32:17.884Z,12.47
2018-05-04T06:33:18.320Z,12.73
2018-05-04T06:34:18.745Z,12.87
2018-05-04T06:35:19.178Z,13.22
2018-05-04T06:36:19.608Z,13.18
2018-05-04T06:37:20.034Z,13.37
2018-05-04T06:38:20.504Z,13.59
2018-05-04T06:39:20.905Z,14.29
2018-05-04T06:40:21.333Z,14.69
2018-05-04T06:41:21.765Z,15.43
2018-05-04T06:42:22.201Z,15.94
2018-05-04T06:43:22.629Z,16.38
2018-05-04T06:44:23.066Z,17.19
2018-05-04T06:45:23.503Z,17.86
2018-05-04T06:46:23.928Z,18.55
2018-05-04T06:47:24.372Z,17.11
2018-05-04T06:48:24.826Z,17.56
2018-05-04T06:49:25.259Z,17.15
2018-05-04T06:50:25.684Z,17.29
2018-05-04T06:51:26.111Z,17.67
2018-05-04T06:52:26.584Z,18.49
2018-05-04T06:53:27.002Z,19.19
2018-05-04T06:54:27.434Z,19.67
2018-05-04T06:55:27.874Z,20.14
2018-05-04T06:56:28.325Z,18.62
2018-05-04T06:57:28.765Z,19.55
2018-05-04T06:58:29.203Z,17.54
2018-05-04T06:59:29.721Z,17.60
2018-05-04T07:00:30.087Z,17.24
2018-05-04T07:01:30.528Z,16.23
2018-05-04T07:02:30.979Z,15.83
2018-05-04T07:03:31.416Z,16.17
2018-05-04T07:04:31.862Z,15.97
2018-05-04T07:05:32.303Z,16.04
2018-05-04T07:06:32.751Z,16.31
2018-05-04T07:07:33.212Z,16.00
2018-05-04T07:08:33.639Z,16.65
2018-05-04T07:09:34.094Z,18.10
2018-05-04T07:10:34.531Z,18.66
2018-05-04T07:11:34.979Z,17.24
2018-05-04T07:12:35.423Z,16.87
2018-05-04T07:13:35.874Z,17.38
2018-05-04T07:14:36.310Z,17.06
2018-05-04T07:15:36.768Z,16.57
2018-05-04T07:16:37.218Z,16.86
2018-05-04T07:17:37.654Z,17.12
2018-05-04T07:18:38.101Z,16.79
2018-05-04T07:19:38.541Z,18.07
2018-05-04T07:22:29.393Z,17.57
2018-05-04T07:23:28.125Z,18.16
2018-05-04T07:24:28.570Z,18.07
2018-05-04T07:25:29.019Z,19.07
2018-05-04T07:26:29.466Z,18.89
2018-05-04T07:27:29.911Z,18.10
2018-05-04T07:28:30.362Z,18.31
2018-05-04T07:29:30.814Z,19.24
2018-05-04T07:30:31.258Z,20.24
2018-05-04T07:31:31.709Z,19.33
2018-05-04T07:32:32.166Z,17.86
2018-05-04T07:33:32.609Z,17.60
2018-05-04T07:34:33.057Z,17.71
2018-05-04T07:35:33.518Z,17.57
2018-05-04T07:36:33.958Z,17.49
2018-05-04T07:37:35.904Z,17.85
2018-05-04T07:38:34.876Z,18.03
2018-05-04T07:39:35.307Z,18.44
2018-05-04T07:40:35.766Z,18.83
2018-05-04T07:41:36.235Z,19.48
2018-05-04T07:42:36.666Z,20.14
2018-05-04T07:43:37.118Z,20.40
2018-05-04T07:44:37.577Z,20.70
2018-05-04T07:45:38.030Z,21.18
2018-05-04T07:46:40.420Z,20.85
2018-05-04T07:47:38.940Z,20.96
2018-05-04T07:48:39.447Z,21.20
2018-05-04T07:49:39.844Z,21.61
2018-05-04T07:50:40.290Z,21.39
2018-05-04T07:51:40.750Z,21.05
2018-05-04T07:52:41.229Z,19.26
2018-05-04T07:53:41.663Z,19.41
2018-05-04T07:54:42.107Z,20.10
2018-05-04T07:55:42.647Z,19.77
2018-05-04T07:56:43.021Z,20.09
2018-05-04T07:57:43.475Z,20.52
2018-05-04T07:58:43.930Z,20.84
2018-05-04T07:59:44.382Z,20.92
2018-05-04T08:00:44.841Z,20.88
2018-05-04T08:01:45.299Z,21.02
2018-05-04T08:02:45.753Z,21.20
2018-05-04T08:03:46.211Z,21.64
2018-05-04T08:04:46.671Z,21.95
2018-05-04T08:05:47.129Z,22.20
2018-05-04T08:06:47.584Z,21.96
2018-05-04T08:07:48.093Z,22.17
2018-05-04T08:08:48.498Z,22.41
2018-05-04T08:09:48.965Z,20.81
2018-05-04T08:10:49.414Z,21.46
2018-05-04T08:11:49.857Z,21.99
2018-05-04T08:12:50.320Z,20.82
2018-05-04T08:13:50.780Z,20.25
2018-05-04T08:14:51.241Z,20.74
2018-05-04T08:15:51.702Z,19.94
2018-05-04T08:16:52.156Z,20.59
2018-05-04T08:17:52.620Z,21.77
2018-05-04T08:18:53.077Z,22.59
2018-05-04T08:19:53.532Z,22.76
2018-05-04T08:20:53.993Z,23.12
2018-05-04T08:21:54.452Z,23.91
2018-05-04T08:22:54.910Z,24.23
2018-05-04T08:23:55.369Z,22.73
2018-05-04T08:24:55.830Z,23.91
2018-05-04T08:25:56.291Z,24.29
2018-05-04T08:26:56.755Z,23.73
2018-05-04T08:27:57.214Z,24.73
2018-05-04T08:28:57.670Z,25.22
2018-05-04T08:29:58.145Z,25.04
2018-05-04T08:30:58.602Z,25.91
2018-05-04T08:31:59.058Z,25.70
2018-05-04T08:32:59.522Z,25.51
2018-05-04T08:33:59.978Z,25.81
2018-05-04T08:35:00.444Z,26.58
2018-05-04T08:36:00.898Z,25.10
2018-05-04T08:37:01.364Z,25.91
2018-05-04T08:38:01.827Z,26.44
2018-05-04T08:39:03.955Z,27.21
2018-05-04T08:40:02.774Z,27.03
2018-05-04T08:41:03.210Z,27.20
2018-05-04T08:42:03.679Z,26.05
2018-05-04T08:43:07.079Z,26.00
2018-05-04T08:44:04.610Z,26.00
2018-05-04T08:45:05.071Z,26.96
2018-05-04T08:46:05.526Z,26.34
2018-05-04T08:47:05.984Z,26.48
2018-05-04T08:48:06.455Z,23.59
2018-05-04T08:49:06.945Z,25.07
2018-05-04T08:50:07.388Z,26.36
2018-05-04T08:51:07.929Z,27.02
2018-05-04T08:52:08.305Z,27.83
2018-05-04T08:53:08.769Z,28.63
2018-05-04T08:54:09.236Z,29.31
2018-05-04T08:55:09.698Z,24.32
2018-05-04T08:56:10.158Z,26.65
2018-05-04T08:57:10.676Z,26.68
2018-05-04T08:58:11.091Z,28.62
2018-05-04T08:59:11.557Z,28.91
2018-05-04T09:00:12.018Z,27.92
2018-05-04T09:01:12.484Z,26.53
2018-05-04T09:02:12.955Z,24.40
2018-05-04T09:03:13.415Z,26.25
2018-05-04T09:04:13.875Z,27.54
2018-05-04T09:05:14.391Z,28.17
2018-05-04T09:06:14.831Z,25.08
2018-05-04T09:07:15.276Z,25.96
2018-05-04T09:08:15.741Z,27.58
2018-05-04T09:09:16.206Z,25.87
2018-05-04T09:10:16.668Z,27.33
2018-05-04T09:11:17.231Z,24.36
2018-05-04T09:12:17.597Z,22.54
2018-05-04T09:13:18.077Z,23.34
2018-05-04T09:14:18.534Z,24.57
2018-05-04T09:15:19.000Z,23.58
2018-05-04T09:16:19.460Z,22.70
2018-05-04T09:17:19.955Z,23.43
2018-05-04T09:18:20.396Z,23.28
2018-05-04T09:19:20.863Z,23.15
2018-05-04T09:20:21.324Z,22.59
2018-05-04T09:21:21.792Z,23.00
2018-05-04T09:22:22.258Z,25.54
2018-05-04T09:23:22.730Z,26.90
2018-05-04T09:24:23.188Z,27.86
2018-05-04T09:25:23.764Z,27.21
2018-05-04T09:26:24.118Z,23.96
2018-05-04T09:27:24.587Z,23.62
2018-05-04T09:28:25.055Z,21.61
2018-05-04T09:29:25.519Z,21.25
2018-05-04T09:30:25.987Z,24.43
2018-05-04T09:31:26.450Z,25.78
2018-05-04T09:32:26.924Z,25.44
2018-05-04T09:33:27.380Z,24.14
2018-05-04T09:34:27.846Z,25.69
2018-05-04T09:35:28.313Z,27.27
2018-05-04T09:36:28.783Z,27.98
2018-05-04T09:37:29.247Z,29.29
2018-05-04T09:38:29.714Z,27.92
2018-05-04T09:39:30.177Z,29.14
2018-05-04T09:40:30.640Z,29.35
2018-05-04T09:41:31.107Z,29.79
2018-05-04T09:42:31.573Z,27.77
2018-05-04T09:43:32.111Z,27.60
2018-05-04T09:44:32.510Z,23.43
2018-05-04T09:45:32.971Z,24.40
2018-05-04T09:46:33.473Z,26.15
2018-05-04T09:47:33.909Z,25.55
2018-05-04T09:48:34.366Z,26.85
2018-05-04T09:49:34.838Z,28.20
2018-05-04T09:50:35.306Z,27.51
2018-05-04T09:51:35.768Z,24.74
2018-05-04T09:52:36.236Z,24.13
2018-05-04T09:53:36.705Z,25.17
2018-05-04T09:54:37.169Z,26.85
2018-05-04T09:55:37.667Z,22.98
2018-05-04T09:56:38.104Z,22.75
2018-05-04T09:57:38.574Z,22.26
2018-05-04T09:58:39.035Z,21.24
2018-05-04T09:59:39.515Z,20.11
2018-05-04T10:00:39.971Z,20.06
2018-05-04T10:01:40.439Z,21.43
2018-05-04T10:02:40.902Z,24.17
2018-05-04T10:03:41.376Z,24.86
2018-05-04T10:04:41.834Z,23.03
2018-05-04T10:05:42.306Z,21.82
2018-05-04T10:06:42.768Z,22.20
2018-05-04T10:07:43.239Z,22.25
2018-05-04T10:08:43.711Z,23.12
2018-05-04T10:09:44.178Z,23.48
2018-05-04T10:10:44.639Z,22.51
2018-05-04T10:11:45.102Z,22.17
2018-05-04T10:12:45.565Z,21.73
2018-05-04T10:13:46.052Z,21.93
2018-05-04T10:14:46.499Z,22.99
2018-05-04T10:15:46.979Z,23.25
2018-05-04T10:16:47.432Z,25.41
2018-05-04T10:17:47.897Z,26.48
2018-05-04T10:18:48.363Z,26.85
2018-05-04T10:19:48.828Z,27.67
2018-05-04T10:20:49.287Z,25.07
2018-05-04T10:21:49.766Z,24.86
2018-05-04T10:22:50.222Z,23.91
2018-05-04T10:23:50.693Z,22.98
2018-05-04T10:24:51.154Z,25.33
2018-05-04T10:25:51.631Z,25.72
2018-05-04T10:26:52.093Z,27.44
2018-05-04T10:27:52.564Z,27.30
2018-05-04T10:28:53.033Z,25.44
2018-05-04T10:29:53.504Z,22.10
2018-05-04T10:30:53.973Z,21.72
2018-05-04T10:31:54.431Z,24.74
2018-05-04T10:32:54.919Z,26.37
2018-05-04T10:33:55.368Z,27.05
2018-05-04T10:34:55.845Z,28.32
2018-05-04T10:35:56.346Z,28.64
2018-05-04T10:36:56.779Z,25.99
2018-05-04T10:37:57.237Z,25.62
2018-05-04T10:38:57.830Z,24.63
2018-05-04T10:39:58.184Z,22.78
2018-05-04T10:40:58.644Z,22.55
2018-05-04T10:41:59.109Z,25.65
2018-05-04T10:42:59.579Z,26.60
2018-05-04T10:44:00.050Z,25.35
2018-05-04T10:45:00.524Z,24.63
2018-05-04T10:46:00.984Z,26.22
2018-05-04T10:47:01.450Z,27.40
2018-05-04T10:48:01.915Z,27.48
2018-05-04T10:49:02.385Z,28.47
2018-05-04T10:50:02.863Z,28.20
2018-05-04T10:51:03.326Z,25.01
2018-05-04T10:52:03.797Z,26.52
2018-05-04T10:53:04.260Z,27.00
2018-05-04T10:54:04.731Z,25.83
2018-05-04T10:55:05.200Z,27.07
2018-05-04T10:56:05.668Z,27.00
2018-05-04T10:57:06.142Z,28.74
2018-05-04T10:58:06.611Z,30.30
2018-05-04T10:59:07.078Z,31.18
2018-05-04T11:00:07.547Z,30.63
2018-05-04T11:01:08.013Z,30.37
2018-05-04T11:02:08.513Z,30.54
2018-05-04T11:03:08.957Z,30.24
2018-05-04T11:04:09.431Z,29.10
2018-05-04T11:05:09.897Z,29.47
2018-05-04T11:06:10.381Z,29.91
2018-05-04T11:07:10.841Z,29.22
2018-05-04T11:08:11.312Z,29.08
2018-05-04T11:09:11.776Z,29.45
2018-05-04T11:10:12.255Z,29.73
2018-05-04T11:11:12.719Z,29.73
2018-05-04T11:12:13.189Z,29.26
2018-05-04T11:13:13.661Z,28.94
2018-05-04T11:14:14.130Z,28.22
2018-05-04T11:15:14.602Z,29.69
2018-05-04T11:16:15.068Z,26.51
2018-05-04T11:17:15.541Z,22.70
2018-05-04T11:18:16.007Z,22.63
2018-05-04T11:19:16.479Z,25.21
2018-05-04T11:20:16.945Z,25.99
2018-05-04T11:21:17.421Z,27.77
2018-05-04T11:22:17.885Z,26.34
2018-05-04T11:23:18.360Z,28.04
2018-05-04T11:24:18.822Z,25.90
2018-05-04T11:25:19.301Z,24.40
2018-05-04T11:26:19.791Z,25.43
2018-05-04T11:27:20.241Z,26.15
2018-05-04T11:28:20.696Z,26.09
2018-05-04T11:29:23.103Z,27.68
2018-05-04T11:30:21.664Z,28.27
2018-05-04T11:31:22.146Z,26.85
2018-05-04T11:32:22.589Z,27.17
2018-05-04T11:33:23.054Z,25.96
2018-05-04T11:34:23.526Z,26.71
2018-05-04T11:35:23.990Z,23.55
2018-05-04T11:36:24.451Z,22.98
2018-05-04T11:37:24.920Z,23.77
2018-05-04T11:38:25.391Z,24.08
2018-05-04T11:39:25.885Z,23.65
2018-05-04T11:40:26.315Z,22.75
2018-05-04T11:41:26.812Z,22.88
2018-05-04T11:42:27.273Z,21.35
2018-05-04T11:43:27.697Z,21.14
2018-05-04T11:44:28.156Z,20.74
2018-05-04T11:45:28.629Z,20.92
2018-05-04T11:46:29.068Z,21.02
2018-05-04T11:47:29.520Z,21.24
2018-05-04T11:48:29.969Z,21.39
2018-05-04T11:49:30.467Z,21.18
2018-05-04T11:50:30.881Z,20.60
2018-05-04T11:51:31.325Z,20.29
2018-05-04T11:52:31.776Z,20.41
2018-05-04T11:53:32.227Z,20.50
2018-05-04T11:54:32.713Z,20.43
2018-05-04T11:55:33.134Z,20.47
2018-05-04T11:56:33.625Z,20.21
2018-05-04T11:57:34.036Z,20.41
2018-05-04T11:58:34.498Z,20.50
2018-05-04T11:59:34.918Z,20.51
2018-05-04T12:00:35.382Z,19.33
2018-05-04T12:01:35.819Z,19.27
2018-05-04T12:02:36.286Z,18.73
2018-05-04T12:03:36.743Z,19.00
2018-05-04T12:04:37.171Z,19.11
2018-05-04T12:05:37.600Z,18.63
2018-05-04T12:06:38.051Z,18.88
2018-05-04T12:07:38.486Z,18.89
2018-05-04T12:08:38.927Z,18.58
2018-05-04T12:09:39.369Z,18.47
2018-05-04T12:10:39.811Z,18.74
2018-05-04T12:11:40.244Z,18.86
2018-05-04T12:12:40.690Z,18.92
2018-05-04T12:13:41.136Z,18.84
2018-05-04T12:14:41.579Z,18.63
2018-05-04T12:15:42.019Z,18.60
2018-05-04T12:16:42.507Z,18.44
2018-05-04T12:17:42.893Z,18.38
2018-05-04T12:18:43.345Z,18.47
2018-05-04T12:19:43.798Z,18.53
2018-05-04T12:20:44.219Z,18.33
2018-05-04T12:21:44.659Z,18.25
2018-05-04T12:22:45.187Z,18.26
2018-05-04T12:23:45.543Z,18.31
2018-05-04T12:24:45.978Z,18.52
2018-05-04T12:25:46.418Z,18.60
2018-05-04T12:26:46.918Z,18.55
2018-05-04T12:27:47.313Z,18.33
2018-05-04T12:28:47.778Z,18.38
2018-05-04T12:29:48.183Z,18.37
2018-05-04T12:30:48.623Z,18.50
2018-05-04T12:31:49.062Z,18.59
2018-05-04T12:32:49.500Z,18.38
2018-05-04T12:33:49.940Z,18.44
2018-05-04T12:34:50.391Z,18.40
2018-05-04T12:35:50.819Z,18.59
2018-05-04T12:36:51.256Z,18.75
2018-05-04T12:37:51.693Z,18.50
2018-05-04T12:38:52.144Z,18.49
2018-05-04T12:39:52.574Z,18.63
2018-05-04T12:40:53.021Z,18.38
2018-05-04T12:41:53.459Z,18.73
2018-05-04T12:42:53.900Z,18.81
2018-05-04T12:43:54.336Z,18.89
2018-05-04T12:44:54.762Z,18.86
2018-05-04T12:45:55.225Z,19.09
2018-05-04T12:46:55.756Z,19.22
2018-05-04T12:47:56.088Z,19.18
2018-05-04T12:48:56.541Z,19.19
2018-05-04T12:49:56.968Z,19.27
2018-05-04T12:50:57.405Z,19.29
2018-05-04T12:51:57.851Z,19.22
2018-05-04T12:52:58.281Z,19.26
2018-05-04T12:53:58.717Z,19.40
2018-05-04T12:54:59.168Z,19.56
2018-05-04T12:55:59.642Z,19.70
2018-05-04T12:57:00.092Z,19.82
2018-05-04T12:58:00.489Z,19.74
2018-05-04T12:59:00.923Z,19.67
2018-05-04T13:00:01.357Z,19.56
2018-05-04T13:01:01.805Z,19.27
2018-05-04T13:02:02.244Z,18.80
2018-05-04T13:03:02.674Z,18.77
2018-05-04T13:04:03.120Z,19.04
2018-05-04T13:05:03.554Z,19.15
2018-05-04T13:06:04.004Z,19.19
2018-05-04T13:07:04.435Z,19.14
2018-05-04T13:08:04.875Z,19.29
2018-05-04T13:09:05.312Z,19.21